sensor_id;sensor_type;location;lat;lon;timestamp;pressure;altitude;pressure_sealevel;temperature;humidity
70521;BME280;58442;52.716;23.560;2023-11-21T00:00:27;100946.53;;;-0.03;70.33
70521;BME280;58442;52.716;23.560;2023-11-21T00:02:33;100949.99;;;-0.02;70.34
70521;BME280;58442;52.716;23.560;2023-11-21T00:04:35;100952.15;;;0.01;70.28
70521;BME280;58442;52.716;23.560;2023-11-21T00:06:36;100944.94;;;0.02;70.26
70521;BME280;58442;52.716;23.560;2023-11-21T00:08:42;100944.94;;;0.02;70.21
70521;BME280;58442;52.716;23.560;2023-11-21T00:10:44;100949.73;;;-0.01;70.24
70521;BME280;58442;52.716;23.560;2023-11-21T00:12:45;100952.39;;;-0.01;70.35
70521;BME280;58442;52.716;23.560;2023-11-21T00:14:49;100952.39;;;-0.01;70.40
70521;BME280;58442;52.716;23.560;2023-11-21T00:16:58;100952.39;;;-0.01;70.38
70521;BME280;58442;52.716;23.560;2023-11-21T00:19:00;100950.55;;;0.00;70.42
70521;BME280;58442;52.716;23.560;2023-11-21T00:21:02;100965.51;;;0.01;70.34
70521;BME280;58442;52.716;23.560;2023-11-21T00:23:04;100962.03;;;0.01;70.41
70521;BME280;58442;52.716;23.560;2023-11-21T00:25:12;100961.48;;;-0.02;70.36
70521;BME280;58442;52.716;23.560;2023-11-21T00:27:18;100967.38;;;-0.05;70.42
70521;BME280;58442;52.716;23.560;2023-11-21T00:29:19;100957.77;;;-0.06;70.47
70521;BME280;58442;52.716;23.560;2023-11-21T00:31:21;100960.45;;;-0.11;70.43
70521;BME280;58442;52.716;23.560;2023-11-21T00:33:27;100963.40;;;-0.12;70.64
70521;BME280;58442;52.716;23.560;2023-11-21T00:35:29;100966.06;;;-0.12;70.69
70521;BME280;58442;52.716;23.560;2023-11-21T00:37:30;100968.46;;;-0.11;70.64
70521;BME280;58442;52.716;23.560;2023-11-21T00:39:33;100964.72;;;-0.10;70.65
70521;BME280;58442;52.716;23.560;2023-11-21T00:41:42;100962.57;;;-0.08;70.62
70521;BME280;58442;52.716;23.560;2023-11-21T00:43:45;100958.85;;;-0.07;70.59
70521;BME280;58442;52.716;23.560;2023-11-21T00:45:47;100959.65;;;-0.06;70.60
70521;BME280;58442;52.716;23.560;2023-11-21T00:47:50;100961.23;;;-0.05;70.61
70521;BME280;58442;52.716;23.560;2023-11-21T00:49:57;100962.04;;;-0.05;70.64
70521;BME280;58442;52.716;23.560;2023-11-21T00:52:00;100957.22;;;-0.03;70.63
70521;BME280;58442;52.716;23.560;2023-11-21T00:54:02;100961.48;;;-0.02;70.54
70521;BME280;58442;52.716;23.560;2023-11-21T00:56:04;100957.22;;;-0.03;70.58
70521;BME280;58442;52.716;23.560;2023-11-21T00:58:13;100964.16;;;-0.02;70.60
70521;BME280;58442;52.716;23.560;2023-11-21T01:00:14;100963.91;;;0.00;70.60
70521;BME280;58442;52.716;23.560;2023-11-21T01:02:18;100963.08;;;-0.01;70.59
70521;BME280;58442;52.716;23.560;2023-11-21T01:04:20;100961.48;;;-0.02;70.64
70521;BME280;58442;52.716;23.560;2023-11-21T01:06:28;100953.50;;;-0.07;70.67
70521;BME280;58442;52.716;23.560;2023-11-21T01:08:30;100953.23;;;-0.05;70.85
70521;BME280;58442;52.716;23.560;2023-11-21T01:10:32;100962.04;;;-0.05;70.88
70521;BME280;58442;52.716;23.560;2023-11-21T01:12:36;100958.02;;;-0.02;70.88
70521;BME280;58442;52.716;23.560;2023-11-21T01:14:43;100959.61;;;-0.01;70.79
70521;BME280;58442;52.716;23.560;2023-11-21T01:16:46;100967.62;;;-0.01;70.80
70521;BME280;58442;52.716;23.560;2023-11-21T01:18:48;100967.09;;;0.02;70.74
70521;BME280;58442;52.716;23.560;2023-11-21T01:20:50;100964.16;;;0.04;70.70
70521;BME280;58442;52.716;23.560;2023-11-21T01:22:58;100963.36;;;0.03;70.65
70521;BME280;58442;52.716;23.560;2023-11-21T01:24:59;100964.71;;;0.01;70.74
70521;BME280;58442;52.716;23.560;2023-11-21T01:27:01;100965.75;;;-0.01;70.85
70521;BME280;58442;52.716;23.560;2023-11-21T01:29:02;100967.38;;;0.01;70.90
70521;BME280;58442;52.716;23.560;2023-11-21T01:31:13;100968.98;;;0.02;70.89
70521;BME280;58442;52.716;23.560;2023-11-21T01:33:15;100976.99;;;0.02;70.95
70521;BME280;58442;52.716;23.560;2023-11-21T01:35:19;100969.78;;;0.02;70.95
70521;BME280;58442;52.716;23.560;2023-11-21T01:37:21;100974.32;;;0.02;70.92
70521;BME280;58442;52.716;23.560;2023-11-21T01:39:28;100967.38;;;0.01;71.05
70521;BME280;58442;52.716;23.560;2023-11-21T01:41:29;100973.24;;;0.03;71.04
70521;BME280;58442;52.716;23.560;2023-11-21T01:43:31;100977.52;;;0.04;70.96
70521;BME280;58442;52.716;23.560;2023-11-21T01:45:33;100975.36;;;0.06;70.86
70521;BME280;58442;52.716;23.560;2023-11-21T01:47:44;100967.62;;;0.04;70.84
70521;BME280;58442;52.716;23.560;2023-11-21T01:49:46;100964.68;;;0.06;70.81
70521;BME280;58442;52.716;23.560;2023-11-21T01:51:49;100973.48;;;0.06;70.88
70521;BME280;58442;52.716;23.560;2023-11-21T01:53:53;100961.20;;;0.05;70.93
70521;BME280;58442;52.716;23.560;2023-11-21T01:55:58;100957.46;;;0.06;71.02
70521;BME280;58442;52.716;23.560;2023-11-21T01:58:01;100944.38;;;0.05;71.02
70521;BME280;58442;52.716;23.560;2023-11-21T02:00:03;100936.36;;;0.05;71.08
70521;BME280;58442;52.716;23.560;2023-11-21T02:02:18;100931.82;;;0.05;71.11
70521;BME280;58442;52.716;23.560;2023-11-21T02:04:20;100935.84;;;0.03;71.16
70521;BME280;58442;52.716;23.560;2023-11-21T02:06:22;100937.44;;;0.04;71.08
70521;BME280;58442;52.716;23.560;2023-11-21T02:08:25;100941.70;;;-0.01;71.13
70521;BME280;58442;52.716;23.560;2023-11-21T02:10:28;100947.88;;;0.00;71.26
70521;BME280;58442;52.716;23.560;2023-11-21T02:12:31;100960.96;;;0.02;71.29
70521;BME280;58442;52.716;23.560;2023-11-21T02:14:33;100961.76;;;0.02;71.30
70521;BME280;58442;52.716;23.560;2023-11-21T02:16:35;100963.08;;;0.05;71.20
70521;BME280;58442;52.716;23.560;2023-11-21T02:18:38;100962.00;;;0.06;71.12
70521;BME280;58442;52.716;23.560;2023-11-21T02:20:44;100962.00;;;0.06;71.07
70521;BME280;58442;52.716;23.560;2023-11-21T02:22:54;100963.60;;;0.07;71.11
70521;BME280;58442;52.716;23.560;2023-11-21T02:24:59;100973.24;;;0.08;71.09
70521;BME280;58442;52.716;23.560;2023-11-21T02:27:00;100970.57;;;0.08;71.04
70521;BME280;58442;52.716;23.560;2023-11-21T02:29:03;100978.84;;;0.06;71.09
70521;BME280;58442;52.716;23.560;2023-11-21T02:31:06;100983.13;;;0.02;71.13
70521;BME280;58442;52.716;23.560;2023-11-21T02:33:08;100984.73;;;0.03;71.24
70521;BME280;58442;52.716;23.560;2023-11-21T02:35:10;100984.73;;;0.03;71.29
70521;BME280;58442;52.716;23.560;2023-11-21T02:37:18;100983.38;;;0.06;71.24
70521;BME280;58442;52.716;23.560;2023-11-21T02:39:20;100983.93;;;0.08;71.17
70521;BME280;58442;52.716;23.560;2023-11-21T02:41:24;100983.13;;;0.07;71.12
70521;BME280;58442;52.716;23.560;2023-11-21T02:43:26;100993.82;;;0.07;71.19
70521;BME280;58442;52.716;23.560;2023-11-21T02:45:33;100990.08;;;0.08;71.15
70521;BME280;58442;52.716;23.560;2023-11-21T02:47:35;100997.28;;;0.08;71.19
70521;BME280;58442;52.716;23.560;2023-11-21T02:49:36;100999.96;;;0.08;71.19
70521;BME280;58442;52.716;23.560;2023-11-21T02:51:38;101002.64;;;0.08;71.23
70521;BME280;58442;52.716;23.560;2023-11-21T02:53:48;101009.02;;;0.07;71.23
70521;BME280;58442;52.716;23.560;2023-11-21T02:55:53;101010.09;;;0.06;71.24
70521;BME280;58442;52.716;23.560;2023-11-21T02:57:54;101010.09;;;0.06;71.30
70521;BME280;58442;52.716;23.560;2023-11-21T02:59:57;101003.16;;;0.05;71.33
70521;BME280;58442;52.716;23.560;2023-11-21T03:02:04;101009.30;;;0.05;71.34
70521;BME280;58442;52.716;23.560;2023-11-21T03:04:09;101014.63;;;0.05;71.37
70521;BME280;58442;52.716;23.560;2023-11-21T03:06:10;101017.03;;;0.07;71.32
70521;BME280;58442;52.716;23.560;2023-11-21T03:08:12;101023.21;;;0.07;71.28
70521;BME280;58442;52.716;23.560;2023-11-21T03:10:19;101018.38;;;0.04;71.24
70521;BME280;58442;52.716;23.560;2023-11-21T03:12:20;101016.00;;;0.03;71.33
70521;BME280;58442;52.716;23.560;2023-11-21T03:14:22;101001.04;;;0.02;71.37
70521;BME280;58442;52.716;23.560;2023-11-21T03:16:23;101010.13;;;0.01;71.43
70521;BME280;58442;52.716;23.560;2023-11-21T03:18:34;101017.34;;;0.00;71.53
70521;BME280;58442;52.716;23.560;2023-11-21T03:20:35;101008.50;;;-0.01;71.50
70521;BME280;58442;52.716;23.560;2023-11-21T03:22:37;100993.82;;;-0.03;71.48
70521;BME280;58442;52.716;23.560;2023-11-21T03:24:39;100986.88;;;-0.04;71.56
70521;BME280;58442;52.716;23.560;2023-11-21T03:26:49;100999.69;;;-0.01;71.61
70521;BME280;58442;52.716;23.560;2023-11-21T03:28:52;101016.51;;;-0.01;71.52
70521;BME280;58442;52.716;23.560;2023-11-21T03:30:55;101030.70;;;0.00;71.50
70521;BME280;58442;52.716;23.560;2023-11-21T03:32:57;101031.74;;;-0.01;71.40
70521;BME280;58442;52.716;23.560;2023-11-21T03:35:04;101025.61;;;-0.02;71.39
70521;BME280;58442;52.716;23.560;2023-11-21T03:37:07;101042.19;;;0.01;71.40
70521;BME280;58442;52.716;23.560;2023-11-21T03:39:08;101040.84;;;0.03;71.36
70521;BME280;58442;52.716;23.560;2023-11-21T03:41:10;101026.13;;;0.06;71.30
70521;BME280;58442;52.716;23.560;2023-11-21T03:43:19;101026.93;;;0.06;71.32
70521;BME280;58442;52.716;23.560;2023-11-21T03:45:20;101027.72;;;0.07;71.31
70521;BME280;58442;52.716;23.560;2023-11-21T03:47:22;101017.03;;;0.07;71.33
70521;BME280;58442;52.716;23.560;2023-11-21T03:49:23;101015.45;;;0.06;71.35
70521;BME280;58442;52.716;23.560;2023-11-21T03:51:34;101011.70;;;0.07;71.44
70521;BME280;58442;52.716;23.560;2023-11-21T03:53:36;101013.32;;;0.08;71.41
70521;BME280;58442;52.716;23.560;2023-11-21T03:55:37;101009.57;;;0.09;71.43
70521;BME280;58442;52.716;23.560;2023-11-21T03:57:38;101014.91;;;0.09;71.37
70521;BME280;58442;52.716;23.560;2023-11-21T03:59:49;101012.49;;;0.12;71.32
70521;BME280;58442;52.716;23.560;2023-11-21T04:01:51;101018.91;;;0.11;71.27
70521;BME280;58442;52.716;23.560;2023-11-21T04:03:52;101028.28;;;0.14;71.23
70521;BME280;58442;52.716;23.560;2023-11-21T04:05:54;101034.14;;;0.16;71.11
70521;BME280;58442;52.716;23.560;2023-11-21T04:08:04;101031.47;;;0.16;71.15
70521;BME280;58442;52.716;23.560;2023-11-21T04:10:07;101026.13;;;0.16;71.13
70521;BME280;58442;52.716;23.560;2023-11-21T04:12:14;101027.20;;;0.15;71.18
70521;BME280;58442;52.716;23.560;2023-11-21T04:14:15;101034.14;;;0.16;71.20
70521;BME280;58442;52.716;23.560;2023-11-21T04:16:19;101040.57;;;0.15;71.18
70521;BME280;58442;52.716;23.560;2023-11-21T04:18:21;101037.09;;;0.14;71.44
70521;BME280;58442;52.716;23.560;2023-11-21T04:20:22;101031.47;;;0.16;71.15
70521;BME280;58442;52.716;23.560;2023-11-21T04:22:24;101033.87;;;0.17;71.16
70521;BME280;58442;52.716;23.560;2023-11-21T04:24:34;101042.41;;;0.19;71.17
70521;BME280;58442;52.716;23.560;2023-11-21T04:26:36;101037.86;;;0.20;71.17
70521;BME280;58442;52.716;23.560;2023-11-21T04:28:38;101036.82;;;0.21;71.16
70521;BME280;58442;52.716;23.560;2023-11-21T04:30:40;101037.34;;;0.23;71.15
70521;BME280;58442;52.716;23.560;2023-11-21T04:32:49;101045.88;;;0.25;71.08
70521;BME280;58442;52.716;23.560;2023-11-21T04:34:52;101049.07;;;0.27;71.07
70521;BME280;58442;52.716;23.560;2023-11-21T04:36:54;101050.70;;;0.28;71.02
70521;BME280;58442;52.716;23.560;2023-11-21T04:38:56;101051.49;;;0.29;70.98
70521;BME280;58442;52.716;23.560;2023-11-21T04:41:05;101051.49;;;0.29;71.03
70521;BME280;58442;52.716;23.560;2023-11-21T04:43:06;101050.70;;;0.28;71.04
70521;BME280;58442;52.716;23.560;2023-11-21T04:45:08;101053.62;;;0.32;70.96
70521;BME280;58442;52.716;23.560;2023-11-21T04:47:12;101046.39;;;0.32;70.92
70521;BME280;58442;52.716;23.560;2023-11-21T04:49:19;101058.69;;;0.33;70.88
70521;BME280;58442;52.716;23.560;2023-11-21T04:51:21;101063.78;;;0.35;70.88
70521;BME280;58442;52.716;23.560;2023-11-21T04:53:22;101069.38;;;0.33;70.91
70521;BME280;58442;52.716;23.560;2023-11-21T04:55:24;101068.58;;;0.33;70.96
70521;BME280;58442;52.716;23.560;2023-11-21T04:57:35;101074.73;;;0.33;71.03
70521;BME280;58442;52.716;23.560;2023-11-21T04:59:36;101076.33;;;0.34;71.02
70521;BME280;58442;52.716;23.560;2023-11-21T05:01:38;101076.08;;;0.36;70.92
70521;BME280;58442;52.716;23.560;2023-11-21T05:03:40;101080.34;;;0.37;70.81
70521;BME280;58442;52.716;23.560;2023-11-21T05:05:50;101079.55;;;0.36;70.79
70521;BME280;58442;52.716;23.560;2023-11-21T05:07:51;101076.88;;;0.36;70.77
70521;BME280;58442;52.716;23.560;2023-11-21T05:09:57;101090.23;;;0.36;70.81
70521;BME280;58442;52.716;23.560;2023-11-21T05:11:58;101071.53;;;0.36;70.81
70521;BME280;58442;52.716;23.560;2023-11-21T05:14:05;101072.60;;;0.35;70.85
70521;BME280;58442;52.716;23.560;2023-11-21T05:16:09;101073.13;;;0.32;70.89
70521;BME280;58442;52.716;23.560;2023-11-21T05:18:11;101065.39;;;0.31;70.97
70521;BME280;58442;52.716;23.560;2023-11-21T05:20:15;101054.97;;;0.29;70.99
70521;BME280;58442;52.716;23.560;2023-11-21T05:22:24;101047.48;;;0.26;71.07
70521;BME280;58442;52.716;23.560;2023-11-21T05:24:26;101052.30;;;0.24;71.10
70521;BME280;58442;52.716;23.560;2023-11-21T05:26:28;101058.72;;;0.23;71.21
70521;BME280;58442;52.716;23.560;2023-11-21T05:28:29;101057.13;;;0.22;71.25
70521;BME280;58442;52.716;23.560;2023-11-21T05:30:35;101057.92;;;0.22;71.30
70521;BME280;58442;52.716;23.560;2023-11-21T05:32:36;101062.20;;;0.23;71.30
70521;BME280;58442;52.716;23.560;2023-11-21T05:34:38;101072.09;;;0.23;71.29
70521;BME280;58442;52.716;23.560;2023-11-21T05:36:39;101071.80;;;0.24;71.29
70521;BME280;58442;52.716;23.560;2023-11-21T05:38:50;101075.80;;;0.27;71.31
70521;BME280;58442;52.716;23.560;2023-11-21T05:40:52;101083.02;;;0.32;71.27
70521;BME280;58442;52.716;23.560;2023-11-21T05:42:53;101078.20;;;0.34;71.18
70521;BME280;58442;52.716;23.560;2023-11-21T05:44:55;101092.37;;;0.34;71.09
70521;BME280;58442;52.716;23.560;2023-11-21T05:47:05;101089.97;;;0.33;71.06
70521;BME280;58442;52.716;23.560;2023-11-21T05:49:08;101092.63;;;0.33;71.14
70521;BME280;58442;52.716;23.560;2023-11-21T05:51:10;101099.86;;;0.32;71.11
70521;BME280;58442;52.716;23.560;2023-11-21T05:53:14;101101.73;;;0.32;71.16
70521;BME280;58442;52.716;23.560;2023-11-21T05:55:22;101106.56;;;0.30;71.16
70521;BME280;58442;52.716;23.560;2023-11-21T05:57:26;101104.16;;;0.28;71.22
70521;BME280;58442;52.716;23.560;2023-11-21T05:59:28;101108.16;;;0.31;71.18
70521;BME280;58442;52.716;23.560;2023-11-21T06:01:29;101114.30;;;0.31;71.17
70521;BME280;58442;52.716;23.560;2023-11-21T06:03:35;101109.75;;;0.32;71.21
70521;BME280;58442;52.716;23.560;2023-11-21T06:05:37;101114.02;;;0.33;71.15
70521;BME280;58442;52.716;23.560;2023-11-21T06:07:39;101111.06;;;0.34;71.08
70521;BME280;58442;52.716;23.560;2023-11-21T06:09:42;101106.28;;;0.36;71.05
70521;BME280;58442;52.716;23.560;2023-11-21T06:11:50;101113.23;;;0.37;70.96
70521;BME280;58442;52.716;23.560;2023-11-21T06:13:52;101115.63;;;0.39;70.94
70521;BME280;58442;52.716;23.560;2023-11-21T06:15:54;101128.71;;;0.40;70.96
70521;BME280;58442;52.716;23.560;2023-11-21T06:17:56;101133.27;;;0.40;70.86
70521;BME280;58442;52.716;23.560;2023-11-21T06:20:07;101132.46;;;0.39;70.84
70521;BME280;58442;52.716;23.560;2023-11-21T06:22:16;101134.06;;;0.40;70.82
70521;BME280;58442;52.716;23.560;2023-11-21T06:24:17;101143.71;;;0.41;70.79
70521;BME280;58442;52.716;23.560;2023-11-21T06:26:19;101135.69;;;0.41;70.82
70521;BME280;58442;52.716;23.560;2023-11-21T06:28:22;101133.02;;;0.41;70.80
70521;BME280;58442;52.716;23.560;2023-11-21T06:30:23;101141.03;;;0.41;70.80
70521;BME280;58442;52.716;23.560;2023-11-21T06:32:25;101138.88;;;0.38;70.83
70521;BME280;58442;52.716;23.560;2023-11-21T06:34:27;101137.02;;;0.39;70.88
70521;BME280;58442;52.716;23.560;2023-11-21T06:36:37;101136.20;;;0.38;70.94
70521;BME280;58442;52.716;23.560;2023-11-21T06:38:38;101142.08;;;0.40;70.92
70521;BME280;58442;52.716;23.560;2023-11-21T06:40:40;101137.02;;;0.39;70.88
70521;BME280;58442;52.716;23.560;2023-11-21T06:42:42;101147.17;;;0.37;70.92
70521;BME280;58442;52.716;23.560;2023-11-21T06:44:52;101146.38;;;0.36;70.97
70521;BME280;58442;52.716;23.560;2023-11-21T06:46:57;101156.80;;;0.38;70.95
70521;BME280;58442;52.716;23.560;2023-11-21T06:48:59;101157.88;;;0.42;70.89
70521;BME280;58442;52.716;23.560;2023-11-21T06:51:00;101155.45;;;0.40;70.79
70521;BME280;58442;52.716;23.560;2023-11-21T06:53:07;101162.43;;;0.41;70.79
70521;BME280;58442;52.716;23.560;2023-11-21T06:55:11;101163.23;;;0.42;70.77
70521;BME280;58442;52.716;23.560;2023-11-21T06:57:13;101159.75;;;0.41;70.71
70521;BME280;58442;52.716;23.560;2023-11-21T06:59:14;101164.02;;;0.42;70.66
70521;BME280;58442;52.716;23.560;2023-11-21T07:01:22;101168.57;;;0.42;70.68
70521;BME280;58442;52.716;23.560;2023-11-21T07:03:23;101171.48;;;0.40;70.70
70521;BME280;58442;52.716;23.560;2023-11-21T07:05:27;101174.73;;;0.42;70.76
70521;BME280;58442;52.716;23.560;2023-11-21T07:07:28;101171.25;;;0.42;70.69
70521;BME280;58442;52.716;23.560;2023-11-21T07:09:37;101167.77;;;0.41;70.70
70521;BME280;58442;52.716;23.560;2023-11-21T07:11:39;101179.00;;;0.43;70.74
70521;BME280;58442;52.716;23.560;2023-11-21T07:13:40;101173.65;;;0.43;70.69
70521;BME280;58442;52.716;23.560;2023-11-21T07:15:42;101166.95;;;0.46;70.64
70521;BME280;58442;52.716;23.560;2023-11-21T07:17:52;101173.09;;;0.46;70.62
70521;BME280;58442;52.716;23.560;2023-11-21T07:19:55;101168.82;;;0.45;70.70
70521;BME280;58442;52.716;23.560;2023-11-21T07:21:57;101177.65;;;0.46;70.73
70521;BME280;58442;52.716;23.560;2023-11-21T07:24:00;101176.57;;;0.47;70.71
70521;BME280;58442;52.716;23.560;2023-11-21T07:26:07;101181.66;;;0.48;70.69
70521;BME280;58442;52.716;23.560;2023-11-21T07:28:11;101173.38;;;0.50;70.70
70521;BME280;58442;52.716;23.560;2023-11-21T07:30:13;101178.45;;;0.51;70.72
70521;BME280;58442;52.716;23.560;2023-11-21T07:32:15;101180.56;;;0.54;70.66
70521;BME280;58442;52.716;23.560;2023-11-21T07:34:22;101181.40;;;0.55;70.62
70521;BME280;58442;52.716;23.560;2023-11-21T07:36:24;101184.87;;;0.56;70.57
70521;BME280;58442;52.716;23.560;2023-11-21T07:38:26;101181.65;;;0.59;70.58
70521;BME280;58442;52.716;23.560;2023-11-21T07:40:29;101181.38;;;0.60;70.53
70521;BME280;58442;52.716;23.560;2023-11-21T07:42:37;101190.99;;;0.61;70.54
70521;BME280;58442;52.716;23.560;2023-11-21T07:44:39;101176.02;;;0.60;70.52
70521;BME280;58442;52.716;23.560;2023-11-21T07:46:41;101188.32;;;0.61;70.51
70521;BME280;58442;52.716;23.560;2023-11-21T07:48:43;101186.73;;;0.60;70.50
70521;BME280;58442;52.716;23.560;2023-11-21T07:50:52;101181.65;;;0.59;70.48
70521;BME280;58442;52.716;23.560;2023-11-21T07:52:54;101182.17;;;0.61;70.51
70521;BME280;58442;52.716;23.560;2023-11-21T07:54:55;101182.97;;;0.61;70.48
70521;BME280;58442;52.716;23.560;2023-11-21T07:56:57;101181.09;;;0.62;70.47
70521;BME280;58442;52.716;23.560;2023-11-21T07:59:08;101173.08;;;0.62;70.43
70521;BME280;58442;52.716;23.560;2023-11-21T08:01:09;101184.60;;;0.62;70.43
70521;BME280;58442;52.716;23.560;2023-11-21T08:03:11;101187.27;;;0.62;70.47
70521;BME280;58442;52.716;23.560;2023-11-21T08:05:13;101184.84;;;0.66;70.45
70521;BME280;58442;52.716;23.560;2023-11-21T08:07:22;101193.40;;;0.68;70.39
70521;BME280;58442;52.716;23.560;2023-11-21T08:09:24;101184.57;;;0.67;70.34
70521;BME280;58442;52.716;23.560;2023-11-21T08:11:26;101187.24;;;0.67;70.39
70521;BME280;58442;52.716;23.560;2023-11-21T08:13:30;101189.12;;;0.67;70.32
70521;BME280;58442;52.716;23.560;2023-11-21T08:15:38;101186.16;;;0.68;70.33
70521;BME280;58442;52.716;23.560;2023-11-21T08:17:39;101192.88;;;0.71;70.27
70521;BME280;58442;52.716;23.560;2023-11-21T08:19:41;101185.37;;;0.73;70.25
70521;BME280;58442;52.716;23.560;2023-11-21T08:21:42;101191.80;;;0.77;70.16
70521;BME280;58442;52.716;23.560;2023-11-21T08:23:53;101186.45;;;0.77;70.08
70521;BME280;58442;52.716;23.560;2023-11-21T08:25:56;101187.52;;;0.76;70.06
70521;BME280;58442;52.716;23.560;2023-11-21T08:27:57;101194.47;;;0.77;70.07
70521;BME280;58442;52.716;23.560;2023-11-21T08:29:59;101196.34;;;0.76;70.06
70521;BME280;58442;52.716;23.560;2023-11-21T08:32:08;101189.92;;;0.77;70.02
70521;BME280;58442;52.716;23.560;2023-11-21T08:34:09;101195.80;;;0.79;69.99
70521;BME280;58442;52.716;23.560;2023-11-21T08:36:11;101194.44;;;0.82;69.96
70521;BME280;58442;52.716;23.560;2023-11-21T08:38:13;101200.07;;;0.86;69.84
70521;BME280;58442;52.716;23.560;2023-11-21T08:40:23;101204.62;;;0.85;69.76
70521;BME280;58442;52.716;23.560;2023-11-21T08:42:25;101204.62;;;0.85;69.83
70521;BME280;58442;52.716;23.560;2023-11-21T08:44:30;101205.98;;;0.83;69.80
70521;BME280;58442;52.716;23.560;2023-11-21T08:46:33;101204.34;;;0.81;69.88
70521;BME280;58442;52.716;23.560;2023-11-21T08:48:41;101206.21;;;0.81;69.88
70521;BME280;58442;52.716;23.560;2023-11-21T08:50:42;101214.24;;;0.81;69.88
70521;BME280;58442;52.716;23.560;2023-11-21T08:52:45;101216.91;;;0.81;69.89
70521;BME280;58442;52.716;23.560;2023-11-21T08:54:49;101213.16;;;0.82;69.95
70521;BME280;58442;52.716;23.560;2023-11-21T08:56:57;101217.47;;;0.83;69.85
70521;BME280;58442;52.716;23.560;2023-11-21T08:59:01;101221.19;;;0.82;69.73
70521;BME280;58442;52.716;23.560;2023-11-21T09:01:04;101225.74;;;0.81;69.71
70521;BME280;58442;52.716;23.560;2023-11-21T09:03:08;101227.62;;;0.81;69.63
70521;BME280;58442;52.716;23.560;2023-11-21T09:05:10;101215.84;;;0.82;69.60
70521;BME280;58442;52.716;23.560;2023-11-21T09:07:12;101226.55;;;0.82;69.53
70521;BME280;58442;52.716;23.560;2023-11-21T09:09:14;101225.74;;;0.81;69.57
70521;BME280;58442;52.716;23.560;2023-11-21T09:11:16;101229.23;;;0.82;69.61
70521;BME280;58442;52.716;23.560;2023-11-21T09:13:23;101218.27;;;0.84;69.60
70521;BME280;58442;52.716;23.560;2023-11-21T09:15:26;101222.82;;;0.83;69.58
70521;BME280;58442;52.716;23.560;2023-11-21T09:17:28;101222.82;;;0.83;69.62
70521;BME280;58442;52.716;23.560;2023-11-21T09:19:29;101220.67;;;0.85;69.60
70521;BME280;58442;52.716;23.560;2023-11-21T09:21:38;101216.91;;;0.86;69.64
70521;BME280;58442;52.716;23.560;2023-11-21T09:23:40;101220.91;;;0.89;69.59
70521;BME280;58442;52.716;23.560;2023-11-21T09:25:42;101223.34;;;0.90;69.58
70521;BME280;58442;52.716;23.560;2023-11-21T09:27:50;101220.12;;;0.93;69.52
70521;BME280;58442;52.716;23.560;2023-11-21T09:29:53;101227.35;;;0.93;69.49
70521;BME280;58442;52.716;23.560;2023-11-21T09:31:56;101235.09;;;0.94;69.52
70521;BME280;58442;52.716;23.560;2023-11-21T09:34:00;101228.67;;;0.95;69.41
70521;BME280;58442;52.716;23.560;2023-11-21T09:36:03;101239.37;;;0.95;69.41
70521;BME280;58442;52.716;23.560;2023-11-21T09:38:08;101228.14;;;0.93;69.46
70521;BME280;58442;52.716;23.560;2023-11-21T09:40:12;101228.14;;;0.93;69.55
70521;BME280;58442;52.716;23.560;2023-11-21T09:42:23;101231.62;;;0.94;69.54
70521;BME280;58442;52.716;23.560;2023-11-21T09:44:35;101231.34;;;0.95;69.52
70521;BME280;58442;52.716;23.560;2023-11-21T09:46:37;101225.99;;;0.95;69.48
70521;BME280;58442;52.716;23.560;2023-11-21T09:48:47;101230.54;;;0.95;69.51
70521;BME280;58442;52.716;23.560;2023-11-21T09:51:08;101238.32;;;0.96;69.58
70521;BME280;58442;52.716;23.560;2023-11-21T09:53:19;101249.83;;;0.97;69.55
70521;BME280;58442;52.716;23.560;2023-11-21T09:55:27;101242.05;;;0.95;69.59
70521;BME280;58442;52.716;23.560;2023-11-21T09:57:37;101246.88;;;0.93;69.62
70521;BME280;58442;52.716;23.560;2023-11-21T09:59:40;101251.95;;;0.95;69.60
70521;BME280;58442;52.716;23.560;2023-11-21T10:01:52;101245.80;;;0.94;69.64
70521;BME280;58442;52.716;23.560;2023-11-21T10:03:55;101243.93;;;0.95;69.67
70521;BME280;58442;52.716;23.560;2023-11-21T10:05:58;101247.40;;;0.95;69.64
70521;BME280;58442;52.716;23.560;2023-11-21T10:10:14;101253.55;;;0.96;69.78
70521;BME280;58442;52.716;23.560;2023-11-21T10:12:30;101253.83;;;0.99;69.76
70521;BME280;58442;52.716;23.560;2023-11-21T10:14:35;101250.07;;;1.00;69.69
70521;BME280;58442;52.716;23.560;2023-11-21T10:16:38;101255.43;;;1.00;69.71
70521;BME280;58442;52.716;23.560;2023-11-21T10:18:40;101243.38;;;1.03;69.67
70521;BME280;58442;52.716;23.560;2023-11-21T10:20:44;101254.91;;;1.03;69.67
70521;BME280;58442;52.716;23.560;2023-11-21T10:22:53;101252.75;;;1.05;69.65
70521;BME280;58442;52.716;23.560;2023-11-21T10:24:54;101260.25;;;1.03;69.73
70521;BME280;58442;52.716;23.560;2023-11-21T10:26:56;101257.58;;;1.03;69.77
70521;BME280;58442;52.716;23.560;2023-11-21T10:29:00;101253.83;;;1.04;69.77
70521;BME280;58442;52.716;23.560;2023-11-21T10:31:06;101253.83;;;1.04;69.79
70521;BME280;58442;52.716;23.560;2023-11-21T10:33:09;101250.07;;;1.05;69.73
70521;BME280;58442;52.716;23.560;2023-11-21T10:35:12;101251.15;;;1.04;69.76
70521;BME280;58442;52.716;23.560;2023-11-21T10:37:14;101248.48;;;1.04;69.81
70521;BME280;58442;52.716;23.560;2023-11-21T10:39:18;101255.70;;;1.04;69.79
70521;BME280;58442;52.716;23.560;2023-11-21T10:41:20;101254.07;;;1.03;69.85
70521;BME280;58442;52.716;23.560;2023-11-21T10:43:25;101256.50;;;1.04;69.93
70521;BME280;58442;52.716;23.560;2023-11-21T10:45:29;101254.87;;;1.08;69.89
70521;BME280;58442;52.716;23.560;2023-11-21T10:47:31;101258.11;;;1.11;69.77